createdAt,value
2019-02-09T00:01:43.786Z,68.07
2019-02-09T00:04:16.020Z,68.46
2019-02-09T00:06:47.151Z,68.88
2019-02-09T00:09:18.281Z,70.15
2019-02-09T00:11:49.619Z,68.07
2019-02-09T00:14:20.692Z,68.33
2019-02-09T00:16:51.691Z,67.56
2019-02-09T00:19:23.003Z,68.95
2019-02-09T00:21:54.084Z,69.75
2019-02-09T00:24:25.063Z,69.01
2019-02-09T00:26:56.220Z,70.38
2019-02-09T00:29:27.265Z,70.45
2019-02-09T00:31:58.780Z,70.04
2019-02-09T00:34:29.751Z,69.09
2019-02-09T00:37:01.941Z,69.91
2019-02-09T00:39:32.946Z,70.77
2019-02-09T00:42:04.160Z,68.99
2019-02-09T00:44:35.372Z,68.00
2019-02-09T00:47:06.787Z,69.37
2019-02-09T00:49:37.795Z,69.15
2019-02-09T00:52:09.109Z,68.91
2019-02-09T00:54:40.251Z,69.88
2019-02-09T00:57:11.390Z,69.15
2019-02-09T00:59:42.420Z,70.38
2019-02-09T01:02:13.912Z,70.90
2019-02-09T01:04:45.048Z,69.86
2019-02-09T01:07:16.190Z,69.85
2019-02-09T01:09:47.248Z,71.15
2019-02-09T01:12:18.397Z,70.44
2019-02-09T01:14:49.526Z,68.56
2019-02-09T01:17:20.612Z,71.10
2019-02-09T01:19:51.756Z,71.39
2019-02-09T01:22:22.886Z,68.56
2019-02-09T01:24:53.852Z,70.55
2019-02-09T01:27:25.297Z,70.76
2019-02-09T01:30:02.107Z,68.29
2019-02-09T01:32:29.266Z,70.58
2019-02-09T01:35:00.340Z,71.77
2019-02-09T01:37:31.494Z,72.68
2019-02-09T01:40:02.668Z,70.80
2019-02-09T01:42:33.984Z,71.05
2019-02-09T01:45:06.871Z,70.55
2019-02-09T01:47:38.026Z,70.72
2019-02-09T01:50:11.113Z,72.04
2019-02-09T01:52:42.327Z,72.16
2019-02-09T01:55:13.904Z,72.27
2019-02-09T01:57:45.167Z,72.96
2019-02-09T02:00:18.609Z,73.90
2019-02-09T02:02:49.929Z,74.27
2019-02-09T02:05:22.069Z,74.21
2019-02-09T02:07:53.324Z,74.67
2019-02-09T02:10:27.341Z,74.68
2019-02-09T02:12:58.564Z,74.62
2019-02-09T02:15:30.305Z,74.83
2019-02-09T02:18:01.579Z,74.44
2019-02-09T02:20:32.915Z,74.21
2019-02-09T02:23:04.252Z,74.48
2019-02-09T02:25:35.570Z,74.18
2019-02-09T02:28:06.755Z,74.48
2019-02-09T02:30:38.408Z,74.28
2019-02-09T02:33:09.629Z,75.54
2019-02-09T02:35:40.746Z,76.05
2019-02-09T02:38:12.873Z,76.02
2019-02-09T02:40:44.023Z,75.80
2019-02-09T02:43:15.199Z,76.70
2019-02-09T02:45:46.271Z,76.45
2019-02-09T02:48:17.432Z,73.21
2019-02-09T02:50:48.566Z,73.17
2019-02-09T02:53:19.696Z,71.76
2019-02-09T02:55:50.929Z,69.48
2019-02-09T02:58:21.940Z,71.93
2019-02-09T03:00:53.298Z,67.02
2019-02-09T03:03:24.387Z,66.30
2019-02-09T03:05:55.494Z,66.07
2019-02-09T03:08:26.798Z,64.49
2019-02-09T03:10:57.979Z,63.09
2019-02-09T03:13:29.089Z,62.41
2019-02-09T03:16:00.131Z,61.42
2019-02-09T03:18:31.251Z,60.44
2019-02-09T03:21:02.490Z,61.57
2019-02-09T03:23:33.637Z,62.39
2019-02-09T03:26:04.868Z,62.76
2019-02-09T03:28:36.079Z,61.89
2019-02-09T03:31:07.193Z,62.16
2019-02-09T03:33:38.306Z,61.40
2019-02-09T03:36:09.432Z,60.47
2019-02-09T03:38:40.912Z,60.17
2019-02-09T03:41:11.983Z,61.06
2019-02-09T03:43:43.162Z,60.81
2019-02-09T03:46:14.271Z,60.33
2019-02-09T03:48:45.457Z,59.64
2019-02-09T03:51:16.624Z,58.48
2019-02-09T03:53:47.866Z,58.87
2019-02-09T03:56:19.007Z,58.80
2019-02-09T03:58:50.117Z,56.42
2019-02-09T04:01:21.231Z,56.35
2019-02-09T04:03:52.297Z,56.82
2019-02-09T04:06:23.409Z,56.67
2019-02-09T04:08:54.535Z,55.63
2019-02-09T04:11:25.934Z,56.46
2019-02-09T04:13:57.043Z,56.23
2019-02-09T04:16:28.125Z,56.15
2019-02-09T04:18:59.288Z,56.34
2019-02-09T04:21:30.424Z,56.50
2019-02-09T04:24:01.502Z,57.06
2019-02-09T04:26:33.535Z,56.85
2019-02-09T04:29:04.677Z,56.57
2019-02-09T04:31:35.700Z,56.11
2019-02-09T04:34:06.863Z,56.02
2019-02-09T04:36:37.995Z,56.50
2019-02-09T04:39:09.165Z,56.23
2019-02-09T04:41:40.281Z,56.19
2019-02-09T04:44:11.346Z,56.24
2019-02-09T04:46:42.406Z,56.13
2019-02-09T04:49:13.515Z,55.84
2019-02-09T04:51:44.566Z,56.47
2019-02-09T04:54:15.568Z,56.06
2019-02-09T04:56:46.748Z,55.97
2019-02-09T04:59:17.957Z,55.25
2019-02-09T05:01:50.117Z,55.83
2019-02-09T05:04:21.108Z,55.98
2019-02-09T05:06:52.346Z,54.98
2019-02-09T05:09:23.563Z,55.50
2019-02-09T05:11:54.620Z,55.75
2019-02-09T05:14:25.754Z,56.68
2019-02-09T05:16:56.805Z,56.31
2019-02-09T05:19:27.889Z,56.03
2019-02-09T05:21:59.062Z,55.86
2019-02-09T05:24:30.111Z,56.30
2019-02-09T05:27:02.274Z,55.88
2019-02-09T05:29:33.330Z,55.57
2019-02-09T05:32:04.857Z,55.47
2019-02-09T05:34:35.900Z,55.37
2019-02-09T05:37:07.005Z,56.90
2019-02-09T05:39:39.211Z,56.84
2019-02-09T05:42:10.543Z,56.75
2019-02-09T05:44:41.752Z,55.13
2019-02-09T05:47:12.869Z,54.58
2019-02-09T05:49:43.946Z,54.24
2019-02-09T05:52:15.086Z,54.63
2019-02-09T05:54:47.124Z,53.44
2019-02-09T05:57:19.272Z,54.70
2019-02-09T05:59:50.348Z,55.25
2019-02-09T06:02:21.479Z,52.64
2019-02-09T06:04:52.561Z,52.05
2019-02-09T06:07:23.658Z,51.62
2019-02-09T06:09:54.685Z,52.17
2019-02-09T06:12:25.791Z,51.41
2019-02-09T06:14:56.858Z,50.61
2019-02-09T06:17:27.969Z,49.68
2019-02-09T06:19:59.139Z,49.60
2019-02-09T06:22:30.187Z,48.68
2019-02-09T06:25:01.255Z,48.55
2019-02-09T06:27:32.359Z,47.54
2019-02-09T06:30:03.536Z,47.52
2019-02-09T06:32:35.526Z,47.42
2019-02-09T06:35:07.202Z,47.59
2019-02-09T06:37:39.068Z,47.84
2019-02-09T06:40:11.656Z,49.18
2019-02-09T06:42:42.686Z,52.72
2019-02-09T06:45:16.408Z,53.04
2019-02-09T06:47:47.556Z,56.06
2019-02-09T06:50:36.580Z,58.13
2019-02-09T06:53:07.889Z,60.33
2019-02-09T06:55:38.984Z,62.49
2019-02-09T06:58:10.175Z,62.95
2019-02-09T07:00:41.208Z,64.51
2019-02-09T07:03:12.326Z,65.77
2019-02-09T07:05:43.386Z,65.55
2019-02-09T07:08:14.569Z,65.12
2019-02-09T07:10:45.715Z,65.03
2019-02-09T07:13:17.404Z,65.23
2019-02-09T07:15:48.541Z,65.33
2019-02-09T07:18:19.861Z,65.48
2019-02-09T07:20:51.146Z,66.42
2019-02-09T07:23:22.320Z,66.72
2019-02-09T07:25:53.804Z,67.30
2019-02-09T07:28:24.887Z,67.92
2019-02-09T07:30:56.123Z,67.91
2019-02-09T07:33:27.196Z,67.25
2019-02-09T07:35:58.176Z,67.30
2019-02-09T07:38:29.221Z,67.37
2019-02-09T07:41:00.308Z,67.47
2019-02-09T07:43:31.629Z,67.38
2019-02-09T07:46:02.800Z,67.41
2019-02-09T07:48:33.766Z,67.49
2019-02-09T07:51:04.932Z,67.23
2019-02-09T07:53:36.158Z,67.29
2019-02-09T07:56:07.310Z,67.04
2019-02-09T07:58:38.545Z,66.67
2019-02-09T08:01:09.679Z,66.22
2019-02-09T08:03:40.820Z,66.81
2019-02-09T08:06:11.960Z,66.90
2019-02-09T08:08:43.144Z,66.61
2019-02-09T08:11:14.141Z,67.29
2019-02-09T08:13:45.453Z,67.54
2019-02-09T08:16:16.751Z,67.11
2019-02-09T08:18:48.832Z,66.44
2019-02-09T08:21:20.083Z,66.13
2019-02-09T08:23:51.165Z,65.75
2019-02-09T08:26:22.296Z,65.46
2019-02-09T08:28:53.352Z,64.91
2019-02-09T08:31:24.940Z,64.62
2019-02-09T08:33:56.078Z,64.08
2019-02-09T08:36:27.248Z,64.06
2019-02-09T08:38:58.237Z,64.10
2019-02-09T08:41:29.387Z,64.09
2019-02-09T08:44:00.459Z,64.16
2019-02-09T08:46:31.600Z,64.07
2019-02-09T08:49:02.740Z,64.44
2019-02-09T08:51:33.946Z,64.24
2019-02-09T08:54:05.174Z,64.07
2019-02-09T08:56:36.380Z,64.20
2019-02-09T08:59:07.529Z,63.69
2019-02-09T09:01:38.749Z,63.69
2019-02-09T09:04:09.872Z,63.60
2019-02-09T09:06:40.999Z,63.43
2019-02-09T09:09:12.627Z,63.31
2019-02-09T09:11:43.782Z,63.58
2019-02-09T09:14:14.916Z,63.56
2019-02-09T09:16:46.080Z,63.20
2019-02-09T09:19:17.157Z,62.90
2019-02-09T09:21:48.336Z,63.03
2019-02-09T09:24:19.385Z,62.53
2019-02-09T09:26:50.521Z,62.45
2019-02-09T09:29:21.598Z,62.15
2019-02-09T09:31:52.672Z,61.54
2019-02-09T09:34:23.719Z,60.87
2019-02-09T09:36:54.901Z,60.52
2019-02-09T09:39:26.056Z,60.10
2019-02-09T09:41:57.209Z,60.11
2019-02-09T09:44:28.334Z,59.82
2019-02-09T09:46:59.599Z,59.62
2019-02-09T09:49:30.737Z,59.31
2019-02-09T09:52:01.901Z,59.83
2019-02-09T09:54:33.043Z,59.51
2019-02-09T09:57:04.182Z,59.36
2019-02-09T09:59:35.166Z,59.55
2019-02-09T10:02:06.341Z,59.72
2019-02-09T10:04:37.481Z,59.43
2019-02-09T10:07:08.611Z,59.12
2019-02-09T10:09:39.687Z,58.63
2019-02-09T10:12:10.700Z,58.31
2019-02-09T10:14:41.785Z,58.30
2019-02-09T10:17:12.923Z,58.36
2019-02-09T10:19:44.043Z,57.88
2019-02-09T10:22:15.126Z,57.64
2019-02-09T10:24:46.242Z,58.23
2019-02-09T10:27:17.414Z,58.33
2019-02-09T10:29:48.539Z,57.79
2019-02-09T10:32:19.670Z,58.59
2019-02-09T10:34:50.793Z,57.65
2019-02-09T10:37:21.935Z,57.67
2019-02-09T10:39:53.079Z,57.49
2019-02-09T10:42:24.144Z,57.21
2019-02-09T10:44:55.637Z,57.41
2019-02-09T10:47:26.640Z,56.77
2019-02-09T10:49:57.856Z,56.49
2019-02-09T10:52:29.012Z,56.49
2019-02-09T10:55:00.180Z,55.46
2019-02-09T10:57:31.308Z,55.42
2019-02-09T11:00:02.451Z,55.67
2019-02-09T11:02:33.664Z,55.43
2019-02-09T11:05:06.470Z,54.65
2019-02-09T11:07:37.636Z,54.81
2019-02-09T11:10:10.895Z,54.20
2019-02-09T11:12:41.966Z,53.58
2019-02-09T11:15:15.142Z,52.96
2019-02-09T11:17:46.320Z,52.60
2019-02-09T11:20:19.138Z,51.50
2019-02-09T11:22:50.341Z,51.18
2019-02-09T11:25:21.695Z,50.39
2019-02-09T11:27:52.946Z,50.36
2019-02-09T11:30:24.124Z,49.92
2019-02-09T11:33:01.600Z,50.25
2019-02-09T11:35:28.081Z,50.22
2019-02-09T11:37:59.219Z,49.46
2019-02-09T11:40:30.384Z,49.57
2019-02-09T11:43:01.670Z,50.36
2019-02-09T11:45:33.253Z,49.89
2019-02-09T11:48:04.775Z,50.12
2019-02-09T11:50:36.419Z,50.25
2019-02-09T11:53:08.726Z,44.31
2019-02-09T12:01:31.462Z,44.31
2019-02-09T12:04:02.560Z,44.31
2019-02-09T12:06:35.183Z,38.39
2019-02-09T12:09:09.386Z,39.89
2019-02-09T12:11:40.483Z,40.72
2019-02-09T12:14:11.603Z,41.22
2019-02-09T12:16:44.082Z,37.68
2019-02-09T12:19:15.268Z,40.23
2019-02-09T12:21:46.342Z,41.80
2019-02-09T12:24:17.505Z,39.64
2019-02-09T12:26:48.698Z,39.03
2019-02-09T12:29:19.705Z,44.87
2019-02-09T12:31:50.862Z,42.33
2019-02-09T12:34:22.038Z,42.33
2019-02-09T12:36:53.278Z,47.43
2019-02-09T12:39:24.440Z,47.44
2019-02-09T12:41:55.452Z,46.83
2019-02-09T12:44:26.530Z,49.67
2019-02-09T12:46:57.650Z,47.47
2019-02-09T12:49:28.842Z,48.67
2019-02-09T12:51:59.979Z,48.65
2019-02-09T12:54:31.066Z,49.50
2019-02-09T12:57:02.185Z,51.72
2019-02-09T12:59:33.246Z,51.92
2019-02-09T13:02:04.579Z,51.91
2019-02-09T13:04:35.685Z,51.85
2019-02-09T13:07:06.829Z,50.74
2019-02-09T13:09:38.000Z,50.12
2019-02-09T13:12:09.159Z,50.69
2019-02-09T13:14:40.257Z,46.76
2019-02-09T13:17:11.321Z,47.46
2019-02-09T13:19:42.483Z,48.09
2019-02-09T13:22:13.710Z,49.10
2019-02-09T13:24:44.758Z,47.75
2019-02-09T13:27:15.840Z,46.51
2019-02-09T13:29:47.012Z,46.92
2019-02-09T13:32:36.718Z,44.83
2019-02-09T13:35:08.291Z,44.77
2019-02-09T13:37:39.517Z,46.66
2019-02-09T13:40:12.221Z,47.93
2019-02-09T13:42:43.387Z,50.31
2019-02-09T13:45:21.135Z,51.12
2019-02-09T13:47:52.591Z,50.90
2019-02-09T13:50:24.166Z,51.63
2019-02-09T13:52:55.331Z,51.83
2019-02-09T13:55:26.822Z,52.34
2019-02-09T13:57:58.018Z,50.79
2019-02-09T14:00:29.546Z,47.58
2019-02-09T14:03:00.872Z,49.17
2019-02-09T14:06:09.277Z,50.82
2019-02-09T14:08:40.447Z,50.66
2019-02-09T14:11:11.658Z,51.74
2019-02-09T14:13:42.873Z,48.99
2019-02-09T14:16:14.080Z,50.84
2019-02-09T14:18:45.514Z,53.09
2019-02-09T14:21:16.833Z,53.47
2019-02-09T14:23:48.008Z,53.60
2019-02-09T14:26:19.314Z,53.87
2019-02-09T14:28:50.469Z,54.50
2019-02-09T14:31:37.147Z,54.25
2019-02-09T14:34:08.416Z,54.79
2019-02-09T14:36:39.607Z,54.61
2019-02-09T14:39:12.023Z,54.73
2019-02-09T14:41:43.232Z,54.59
2019-02-09T14:44:14.404Z,55.00
2019-02-09T14:47:40.302Z,54.99
2019-02-09T14:50:11.843Z,54.80
2019-02-09T14:52:43.147Z,55.31
2019-02-09T14:55:19.415Z,55.17
2019-02-09T14:57:51.092Z,55.34
2019-02-09T15:00:27.367Z,55.16
2019-02-09T15:02:58.585Z,55.28
2019-02-09T15:05:29.800Z,55.15
2019-02-09T15:08:00.995Z,55.12
2019-02-09T15:10:32.176Z,55.20
2019-02-09T15:13:03.227Z,55.08
2019-02-09T15:15:46.882Z,55.29
2019-02-09T15:18:18.192Z,54.87
2019-02-09T15:20:52.854Z,54.91
2019-02-09T15:23:24.033Z,55.04
2019-02-09T15:25:55.236Z,54.95
2019-02-09T15:28:26.435Z,55.09
2019-02-09T15:30:57.746Z,55.27
2019-02-09T15:33:28.898Z,55.45
2019-02-09T15:36:00.072Z,55.85
2019-02-09T15:38:31.537Z,55.84
2019-02-09T15:41:02.732Z,56.00
2019-02-09T15:43:33.922Z,56.19
2019-02-09T15:46:05.564Z,56.36
2019-02-09T15:48:36.764Z,56.41
2019-02-09T15:51:07.978Z,56.77
2019-02-09T15:53:39.158Z,56.79
2019-02-09T15:56:10.318Z,56.72
2019-02-09T15:58:41.495Z,56.93
2019-02-09T16:01:12.677Z,56.81
2019-02-09T16:03:43.855Z,56.95
2019-02-09T16:06:15.066Z,57.37
2019-02-09T16:08:46.341Z,57.05
2019-02-09T16:11:17.584Z,57.14
2019-02-09T16:13:49.851Z,57.39
2019-02-09T16:16:21.198Z,57.38
2019-02-09T16:19:46.255Z,57.43
2019-02-09T16:22:18.516Z,57.41
2019-02-09T16:24:49.723Z,57.42
2019-02-09T16:27:20.893Z,57.56
2019-02-09T16:29:52.096Z,57.52
2019-02-09T16:32:23.275Z,57.57
2019-02-09T16:34:54.464Z,57.80
2019-02-09T16:37:25.628Z,57.88
2019-02-09T16:39:56.811Z,58.06
2019-02-09T16:42:27.983Z,58.34
2019-02-09T16:45:00.366Z,58.47
2019-02-09T16:47:31.601Z,58.60
2019-02-09T16:50:02.841Z,59.01
2019-02-09T16:52:34.038Z,59.33
2019-02-09T16:55:05.968Z,59.32
2019-02-09T16:57:49.670Z,59.36
2019-02-09T17:00:24.396Z,59.58
2019-02-09T17:02:55.697Z,60.07
2019-02-09T17:05:27.204Z,60.66
2019-02-09T17:07:58.485Z,60.42
2019-02-09T17:10:29.784Z,60.65
2019-02-09T17:13:01.054Z,60.75
2019-02-09T17:15:32.248Z,61.13
2019-02-09T17:18:03.556Z,61.02
2019-02-09T17:20:34.901Z,61.33
2019-02-09T17:23:06.559Z,61.58
2019-02-09T17:25:37.745Z,61.52
2019-02-09T17:28:08.914Z,61.61
2019-02-09T17:30:40.118Z,61.74
2019-02-09T17:33:29.707Z,61.55
2019-02-09T17:36:00.949Z,61.92
2019-02-09T17:38:32.128Z,61.90
2019-02-09T17:41:03.416Z,62.09
2019-02-09T17:43:34.903Z,62.33
2019-02-09T17:46:14.741Z,62.39
2019-02-09T17:48:45.916Z,62.65
2019-02-09T17:51:17.270Z,62.68
2019-02-09T17:53:48.450Z,62.78
2019-02-09T17:56:19.639Z,63.05
2019-02-09T17:58:50.847Z,63.11
2019-02-09T18:01:22.050Z,63.19
2019-02-09T18:03:53.240Z,63.21
2019-02-09T18:06:24.489Z,62.91
2019-02-09T18:08:55.739Z,63.17
2019-02-09T18:11:26.927Z,62.56
2019-02-09T18:13:58.127Z,62.78
2019-02-09T18:16:29.322Z,62.88
2019-02-09T18:19:00.500Z,62.59
2019-02-09T18:21:31.689Z,62.62
2019-02-09T18:24:02.873Z,61.98
2019-02-09T18:26:34.049Z,62.07
2019-02-09T18:29:05.420Z,62.00
2019-02-09T18:31:36.599Z,61.79
2019-02-09T18:34:07.767Z,61.99
2019-02-09T18:36:38.966Z,61.87
2019-02-09T18:39:12.667Z,62.07
2019-02-09T18:41:43.842Z,61.66
2019-02-09T18:44:15.042Z,61.73
2019-02-09T18:46:46.227Z,61.75
2019-02-09T18:49:17.442Z,62.00
2019-02-09T18:51:49.136Z,61.48
2019-02-09T18:54:23.111Z,61.02
2019-02-09T18:56:54.291Z,60.90
2019-02-09T18:59:25.500Z,60.71
2019-02-09T19:01:56.674Z,60.88
2019-02-09T19:04:27.891Z,60.71
2019-02-09T19:06:59.069Z,60.07
2019-02-09T19:09:30.253Z,60.11
2019-02-09T19:12:01.504Z,59.82
2019-02-09T19:14:32.695Z,59.81
2019-02-09T19:17:03.877Z,59.76
2019-02-09T19:20:29.049Z,60.01
2019-02-09T19:23:24.056Z,59.70
2019-02-09T19:25:55.225Z,59.30
2019-02-09T19:28:26.407Z,59.27
2019-02-09T19:30:57.585Z,59.40
2019-02-09T19:33:28.827Z,58.81
2019-02-09T19:36:00.094Z,59.11
2019-02-09T19:38:31.382Z,58.93
2019-02-09T19:41:02.551Z,58.96
2019-02-09T19:43:34.810Z,58.57
2019-02-09T19:46:06.439Z,58.65
2019-02-09T19:48:37.649Z,58.76
2019-02-09T19:51:08.839Z,58.25
2019-02-09T19:53:41.221Z,59.25
2019-02-09T19:56:12.481Z,58.79
2019-02-09T19:58:43.716Z,58.96
2019-02-09T20:01:14.890Z,58.67
2019-02-09T20:03:46.168Z,58.71
2019-02-09T20:06:17.339Z,58.73
2019-02-09T20:08:48.541Z,58.74
2019-02-09T20:11:19.727Z,58.06
2019-02-09T20:13:50.920Z,58.14
2019-02-09T20:16:31.530Z,57.92
2019-02-09T20:19:02.801Z,57.65
2019-02-09T20:21:34.030Z,57.80
2019-02-09T20:24:05.730Z,57.87
2019-02-09T20:26:37.894Z,58.16
2019-02-09T20:29:09.092Z,58.13
2019-02-09T20:31:40.334Z,57.87
2019-02-09T20:34:11.539Z,58.06
2019-02-09T20:36:42.735Z,57.84
2019-02-09T20:39:13.914Z,58.06
2019-02-09T20:41:45.106Z,58.09
2019-02-09T20:44:16.292Z,57.70
2019-02-09T20:46:47.504Z,57.70
2019-02-09T20:49:57.765Z,56.89
2019-02-09T20:52:28.928Z,57.16
2019-02-09T20:55:00.264Z,57.37
2019-02-09T20:57:31.582Z,57.28
2019-02-09T21:00:02.796Z,57.19
2019-02-09T21:02:35.059Z,57.40
2019-02-09T21:05:06.572Z,57.17
2019-02-09T21:07:50.094Z,57.35
2019-02-09T21:10:23.346Z,57.47
2019-02-09T21:13:48.606Z,57.02
2019-02-09T21:16:37.811Z,56.99
2019-02-09T21:19:08.961Z,57.54
2019-02-09T21:21:40.174Z,57.38
2019-02-09T21:24:11.332Z,57.51
2019-02-09T21:26:42.616Z,57.35
2019-02-09T21:29:13.853Z,57.55
2019-02-09T21:31:45.073Z,57.64
2019-02-09T21:34:16.255Z,57.42
2019-02-09T21:36:48.335Z,57.69
2019-02-09T21:39:19.517Z,57.47
2019-02-09T21:41:51.102Z,57.32
2019-02-09T21:44:22.286Z,57.28
2019-02-09T21:46:53.480Z,57.31
2019-02-09T21:49:24.759Z,57.97
2019-02-09T21:51:55.954Z,57.34
2019-02-09T21:54:27.124Z,57.46
2019-02-09T21:56:58.331Z,57.74
2019-02-09T21:59:29.500Z,57.62
2019-02-09T22:02:00.686Z,57.98
2019-02-09T22:04:31.888Z,58.24
2019-02-09T22:07:03.075Z,57.93
2019-02-09T22:09:34.242Z,57.83
2019-02-09T22:12:05.772Z,57.87
2019-02-09T22:14:37.126Z,58.29
2019-02-09T22:17:08.564Z,58.11
2019-02-09T22:19:39.901Z,57.86
2019-02-09T22:22:11.090Z,58.02
2019-02-09T22:24:42.265Z,58.36
2019-02-09T22:27:13.462Z,58.18
2019-02-09T22:29:44.659Z,58.65
2019-02-09T22:32:15.805Z,58.16
2019-02-09T22:34:46.997Z,58.52
2019-02-09T22:37:18.287Z,58.20
2019-02-09T22:39:49.602Z,58.66
2019-02-09T22:42:20.835Z,58.64
2019-02-09T22:44:52.003Z,58.55
2019-02-09T22:47:23.202Z,58.59
2019-02-09T22:49:54.380Z,59.00
2019-02-09T22:52:25.572Z,59.23
2019-02-09T22:54:59.490Z,58.97
2019-02-09T22:57:30.675Z,59.47
2019-02-09T23:00:01.922Z,58.78
2019-02-09T23:02:34.705Z,58.96
2019-02-09T23:05:54.979Z,59.16
2019-02-09T23:08:26.179Z,59.76
2019-02-09T23:11:50.959Z,59.40
2019-02-09T23:14:40.615Z,59.43
2019-02-09T23:17:11.882Z,59.82
2019-02-09T23:19:43.161Z,60.18
2019-02-09T23:22:14.447Z,60.22
2019-02-09T23:24:46.148Z,60.35
2019-02-09T23:27:17.406Z,60.10
2019-02-09T23:29:48.599Z,59.93
2019-02-09T23:32:19.766Z,59.86
2019-02-09T23:34:50.956Z,60.81
2019-02-09T23:38:15.995Z,60.55
2019-02-09T23:41:05.461Z,60.23
2019-02-09T23:44:30.592Z,60.68
2019-02-09T23:48:13.945Z,60.37
2019-02-09T23:50:59.849Z,60.25
2019-02-09T23:53:31.051Z,60.61
2019-02-09T23:56:02.217Z,61.13
2019-02-09T23:58:34.512Z,61.38
